sensor_id;sensor_type;location;lat;lon;timestamp;P1;durP1;ratioP1;P2;durP2;ratioP2
76113;SDS011;64845;53.086;5.834;2023-06-22T00:01:14;27.95;;;19.05;;
76113;SDS011;64845;53.086;5.834;2023-06-22T00:03:40;25.90;;;19.70;;
76113;SDS011;64845;53.086;5.834;2023-06-22T00:06:05;25.08;;;18.67;;
76113;SDS011;64845;53.086;5.834;2023-06-22T00:08:30;27.20;;;19.25;;
76113;SDS011;64845;53.086;5.834;2023-06-22T00:10:56;27.20;;;20.65;;
76113;SDS011;64845;53.086;5.834;2023-06-22T00:13:21;23.30;;;18.23;;
76113;SDS011;64845;53.086;5.834;2023-06-22T00:15:47;34.83;;;21.35;;
76113;SDS011;64845;53.086;5.834;2023-06-22T00:18:12;31.42;;;20.65;;
76113;SDS011;64845;53.086;5.834;2023-06-22T00:20:38;29.20;;;19.65;;
76113;SDS011;64845;53.086;5.834;2023-06-22T00:23:05;24.52;;;18.50;;
76113;SDS011;64845;53.086;5.834;2023-06-22T00:25:37;20.58;;;17.98;;
76113;SDS011;64845;53.086;5.834;2023-06-22T00:28:04;24.00;;;16.92;;
76113;SDS011;64845;53.086;5.834;2023-06-22T00:30:31;22.75;;;17.38;;
76113;SDS011;64845;53.086;5.834;2023-06-22T00:32:56;20.08;;;15.23;;
76113;SDS011;64845;53.086;5.834;2023-06-22T00:35:23;21.23;;;15.38;;
76113;SDS011;64845;53.086;5.834;2023-06-22T00:37:54;18.58;;;14.57;;
76113;SDS011;64845;53.086;5.834;2023-06-22T00:40:25;18.58;;;14.68;;
76113;SDS011;64845;53.086;5.834;2023-06-22T00:42:55;18.15;;;13.35;;
76113;SDS011;64845;53.086;5.834;2023-06-22T00:45:21;17.13;;;13.60;;
76113;SDS011;64845;53.086;5.834;2023-06-22T00:47:48;18.73;;;14.05;;
76113;SDS011;64845;53.086;5.834;2023-06-22T00:50:18;22.10;;;14.98;;
76113;SDS011;64845;53.086;5.834;2023-06-22T00:52:47;23.83;;;15.45;;
76113;SDS011;64845;53.086;5.834;2023-06-22T00:55:16;19.88;;;14.43;;
76113;SDS011;64845;53.086;5.834;2023-06-22T00:57:43;19.75;;;13.85;;
76113;SDS011;64845;53.086;5.834;2023-06-22T01:00:11;18.15;;;13.63;;
76113;SDS011;64845;53.086;5.834;2023-06-22T01:02:43;18.60;;;13.73;;
76113;SDS011;64845;53.086;5.834;2023-06-22T01:05:11;18.17;;;13.90;;
76113;SDS011;64845;53.086;5.834;2023-06-22T01:10:41;17.52;;;13.27;;
76113;SDS011;64845;53.086;5.834;2023-06-22T01:13:16;18.17;;;13.70;;
76113;SDS011;64845;53.086;5.834;2023-06-22T01:18:25;23.23;;;14.02;;
76113;SDS011;64845;53.086;5.834;2023-06-22T01:20:55;16.35;;;13.77;;
76113;SDS011;64845;53.086;5.834;2023-06-22T01:26:18;20.52;;;15.73;;
76113;SDS011;64845;53.086;5.834;2023-06-22T01:28:50;21.08;;;16.60;;
76113;SDS011;64845;53.086;5.834;2023-06-22T01:31:25;23.20;;;16.58;;
76113;SDS011;64845;53.086;5.834;2023-06-22T01:37:14;26.05;;;18.15;;
76113;SDS011;64845;53.086;5.834;2023-06-22T01:39:40;29.15;;;19.70;;
76113;SDS011;64845;53.086;5.834;2023-06-22T01:42:06;29.95;;;19.98;;
76113;SDS011;64845;53.086;5.834;2023-06-22T01:44:31;30.88;;;20.92;;
76113;SDS011;64845;53.086;5.834;2023-06-22T01:46:58;27.08;;;18.92;;
76113;SDS011;64845;53.086;5.834;2023-06-22T01:49:24;33.22;;;21.58;;
76113;SDS011;64845;53.086;5.834;2023-06-22T01:51:50;29.50;;;19.00;;
76113;SDS011;64845;53.086;5.834;2023-06-22T01:54:16;27.10;;;19.67;;
76113;SDS011;64845;53.086;5.834;2023-06-22T01:56:41;28.25;;;19.27;;
76113;SDS011;64845;53.086;5.834;2023-06-22T01:59:11;29.77;;;18.58;;
76113;SDS011;64845;53.086;5.834;2023-06-22T02:01:43;22.63;;;16.95;;
76113;SDS011;64845;53.086;5.834;2023-06-22T02:04:26;22.80;;;18.33;;
76113;SDS011;64845;53.086;5.834;2023-06-22T02:06:58;24.20;;;16.58;;
76113;SDS011;64845;53.086;5.834;2023-06-22T02:09:25;23.90;;;18.10;;
76113;SDS011;64845;53.086;5.834;2023-06-22T02:11:56;21.58;;;17.05;;
76113;SDS011;64845;53.086;5.834;2023-06-22T02:14:24;24.42;;;17.45;;
76113;SDS011;64845;53.086;5.834;2023-06-22T02:16:50;21.83;;;16.67;;
76113;SDS011;64845;53.086;5.834;2023-06-22T02:19:16;20.90;;;16.63;;
76113;SDS011;64845;53.086;5.834;2023-06-22T02:21:43;23.33;;;17.38;;
76113;SDS011;64845;53.086;5.834;2023-06-22T02:24:09;26.00;;;17.40;;
76113;SDS011;64845;53.086;5.834;2023-06-22T02:26:35;27.52;;;17.55;;
76113;SDS011;64845;53.086;5.834;2023-06-22T02:29:03;25.83;;;19.00;;
76113;SDS011;64845;53.086;5.834;2023-06-22T02:31:28;30.63;;;19.40;;
76113;SDS011;64845;53.086;5.834;2023-06-22T02:33:58;22.52;;;17.17;;
76113;SDS011;64845;53.086;5.834;2023-06-22T02:36:24;25.70;;;18.52;;
76113;SDS011;64845;53.086;5.834;2023-06-22T02:38:51;25.70;;;17.45;;
76113;SDS011;64845;53.086;5.834;2023-06-22T02:41:17;23.55;;;16.42;;
76113;SDS011;64845;53.086;5.834;2023-06-22T02:43:46;21.13;;;16.75;;
76113;SDS011;64845;53.086;5.834;2023-06-22T02:46:12;21.83;;;16.58;;
76113;SDS011;64845;53.086;5.834;2023-06-22T02:48:41;21.40;;;16.50;;
76113;SDS011;64845;53.086;5.834;2023-06-22T02:51:07;19.88;;;16.27;;
76113;SDS011;64845;53.086;5.834;2023-06-22T02:53:33;22.75;;;17.05;;
76113;SDS011;64845;53.086;5.834;2023-06-22T02:55:59;27.88;;;17.45;;
76113;SDS011;64845;53.086;5.834;2023-06-22T02:58:26;25.83;;;17.42;;
76113;SDS011;64845;53.086;5.834;2023-06-22T03:00:51;23.42;;;17.05;;
76113;SDS011;64845;53.086;5.834;2023-06-22T03:03:18;27.55;;;17.63;;
76113;SDS011;64845;53.086;5.834;2023-06-22T03:05:44;25.98;;;18.42;;
76113;SDS011;64845;53.086;5.834;2023-06-22T03:08:09;27.85;;;18.63;;
76113;SDS011;64845;53.086;5.834;2023-06-22T03:10:35;24.88;;;18.20;;
76113;SDS011;64845;53.086;5.834;2023-06-22T03:13:00;26.27;;;19.73;;
76113;SDS011;64845;53.086;5.834;2023-06-22T03:15:25;21.52;;;17.15;;
76113;SDS011;64845;53.086;5.834;2023-06-22T03:17:54;25.45;;;18.88;;
76113;SDS011;64845;53.086;5.834;2023-06-22T03:20:19;28.42;;;18.80;;
76113;SDS011;64845;53.086;5.834;2023-06-22T03:22:45;22.85;;;16.85;;
76113;SDS011;64845;53.086;5.834;2023-06-22T03:25:10;21.17;;;16.77;;
76113;SDS011;64845;53.086;5.834;2023-06-22T03:27:38;17.75;;;14.38;;
76113;SDS011;64845;53.086;5.834;2023-06-22T03:30:04;17.55;;;12.35;;
76113;SDS011;64845;53.086;5.834;2023-06-22T03:32:32;13.45;;;11.95;;
76113;SDS011;64845;53.086;5.834;2023-06-22T03:34:57;13.13;;;11.73;;
76113;SDS011;64845;53.086;5.834;2023-06-22T03:37:24;14.48;;;11.88;;
76113;SDS011;64845;53.086;5.834;2023-06-22T03:39:50;17.80;;;13.63;;
76113;SDS011;64845;53.086;5.834;2023-06-22T03:42:16;20.67;;;14.63;;
76113;SDS011;64845;53.086;5.834;2023-06-22T03:44:41;22.05;;;13.57;;
76113;SDS011;64845;53.086;5.834;2023-06-22T03:47:07;34.90;;;17.10;;
76113;SDS011;64845;53.086;5.834;2023-06-22T03:49:32;41.10;;;15.15;;
76113;SDS011;64845;53.086;5.834;2023-06-22T03:51:59;28.75;;;13.93;;
76113;SDS011;64845;53.086;5.834;2023-06-22T03:54:25;23.45;;;15.45;;
76113;SDS011;64845;53.086;5.834;2023-06-22T03:56:51;13.90;;;12.48;;
76113;SDS011;64845;53.086;5.834;2023-06-22T03:59:16;16.85;;;15.07;;
76113;SDS011;64845;53.086;5.834;2023-06-22T04:01:42;25.73;;;15.57;;
76113;SDS011;64845;53.086;5.834;2023-06-22T04:04:07;31.33;;;15.90;;
76113;SDS011;64845;53.086;5.834;2023-06-22T04:06:32;18.05;;;15.70;;
76113;SDS011;64845;53.086;5.834;2023-06-22T04:08:59;32.75;;;16.05;;
76113;SDS011;64845;53.086;5.834;2023-06-22T04:11:26;18.90;;;15.52;;
76113;SDS011;64845;53.086;5.834;2023-06-22T04:13:51;29.45;;;15.50;;
76113;SDS011;64845;53.086;5.834;2023-06-22T04:16:17;53.20;;;15.82;;
76113;SDS011;64845;53.086;5.834;2023-06-22T04:18:42;37.65;;;15.77;;
76113;SDS011;64845;53.086;5.834;2023-06-22T04:21:07;20.75;;;14.88;;
76113;SDS011;64845;53.086;5.834;2023-06-22T04:23:33;40.00;;;14.00;;
76113;SDS011;64845;53.086;5.834;2023-06-22T04:25:58;95.53;;;14.00;;
76113;SDS011;64845;53.086;5.834;2023-06-22T04:28:26;18.23;;;12.80;;
76113;SDS011;64845;53.086;5.834;2023-06-22T04:30:52;43.28;;;11.30;;
76113;SDS011;64845;53.086;5.834;2023-06-22T04:33:17;14.20;;;12.50;;
76113;SDS011;64845;53.086;5.834;2023-06-22T04:35:46;13.73;;;12.25;;
76113;SDS011;64845;53.086;5.834;2023-06-22T04:38:12;13.18;;;11.57;;
76113;SDS011;64845;53.086;5.834;2023-06-22T04:40:40;14.40;;;12.68;;
76113;SDS011;64845;53.086;5.834;2023-06-22T04:43:06;12.70;;;11.38;;
76113;SDS011;64845;53.086;5.834;2023-06-22T04:45:34;13.65;;;12.25;;
76113;SDS011;64845;53.086;5.834;2023-06-22T04:48:02;14.93;;;13.13;;
76113;SDS011;64845;53.086;5.834;2023-06-22T04:50:28;16.08;;;14.43;;
76113;SDS011;64845;53.086;5.834;2023-06-22T04:52:54;16.00;;;14.40;;
76113;SDS011;64845;53.086;5.834;2023-06-22T04:55:19;16.60;;;14.68;;
76113;SDS011;64845;53.086;5.834;2023-06-22T04:57:45;17.70;;;14.20;;
76113;SDS011;64845;53.086;5.834;2023-06-22T05:00:14;16.15;;;14.45;;
76113;SDS011;64845;53.086;5.834;2023-06-22T05:02:42;15.45;;;13.65;;
76113;SDS011;64845;53.086;5.834;2023-06-22T05:05:09;16.48;;;12.77;;
76113;SDS011;64845;53.086;5.834;2023-06-22T05:07:39;14.07;;;11.53;;
76113;SDS011;64845;53.086;5.834;2023-06-22T05:10:08;12.93;;;11.63;;
76113;SDS011;64845;53.086;5.834;2023-06-22T05:12:35;13.50;;;10.65;;
76113;SDS011;64845;53.086;5.834;2023-06-22T05:15:01;13.57;;;11.50;;
76113;SDS011;64845;53.086;5.834;2023-06-22T05:17:26;12.40;;;11.25;;
76113;SDS011;64845;53.086;5.834;2023-06-22T05:19:52;13.98;;;11.38;;
76113;SDS011;64845;53.086;5.834;2023-06-22T05:22:18;16.88;;;11.68;;
76113;SDS011;64845;53.086;5.834;2023-06-22T05:24:44;14.32;;;11.48;;
76113;SDS011;64845;53.086;5.834;2023-06-22T05:27:10;15.60;;;12.55;;
76113;SDS011;64845;53.086;5.834;2023-06-22T05:29:38;16.65;;;12.48;;
76113;SDS011;64845;53.086;5.834;2023-06-22T05:32:04;13.70;;;11.98;;
76113;SDS011;64845;53.086;5.834;2023-06-22T05:34:30;18.88;;;13.13;;
76113;SDS011;64845;53.086;5.834;2023-06-22T05:36:55;19.67;;;14.23;;
76113;SDS011;64845;53.086;5.834;2023-06-22T05:39:20;16.73;;;14.13;;
76113;SDS011;64845;53.086;5.834;2023-06-22T05:41:46;15.25;;;13.45;;
76113;SDS011;64845;53.086;5.834;2023-06-22T05:44:12;16.88;;;14.18;;
76113;SDS011;64845;53.086;5.834;2023-06-22T05:46:40;18.23;;;14.40;;
76113;SDS011;64845;53.086;5.834;2023-06-22T05:49:09;18.98;;;13.82;;
76113;SDS011;64845;53.086;5.834;2023-06-22T05:51:35;20.25;;;15.32;;
76113;SDS011;64845;53.086;5.834;2023-06-22T05:54:00;20.05;;;16.08;;
76113;SDS011;64845;53.086;5.834;2023-06-22T05:56:25;21.85;;;16.80;;
76113;SDS011;64845;53.086;5.834;2023-06-22T05:58:51;24.92;;;16.48;;
76113;SDS011;64845;53.086;5.834;2023-06-22T06:01:16;19.65;;;14.77;;
76113;SDS011;64845;53.086;5.834;2023-06-22T06:03:42;16.50;;;13.75;;
76113;SDS011;64845;53.086;5.834;2023-06-22T06:06:07;23.13;;;16.70;;
76113;SDS011;64845;53.086;5.834;2023-06-22T06:08:33;22.02;;;16.77;;
76113;SDS011;64845;53.086;5.834;2023-06-22T06:10:58;19.25;;;14.82;;
76113;SDS011;64845;53.086;5.834;2023-06-22T06:13:24;19.05;;;15.82;;
76113;SDS011;64845;53.086;5.834;2023-06-22T06:15:49;22.60;;;17.48;;
76113;SDS011;64845;53.086;5.834;2023-06-22T06:18:16;21.73;;;16.80;;
76113;SDS011;64845;53.086;5.834;2023-06-22T06:20:42;21.25;;;16.45;;
76113;SDS011;64845;53.086;5.834;2023-06-22T06:23:08;22.75;;;18.50;;
76113;SDS011;64845;53.086;5.834;2023-06-22T06:25:33;23.13;;;17.83;;
76113;SDS011;64845;53.086;5.834;2023-06-22T06:27:58;23.20;;;17.50;;
76113;SDS011;64845;53.086;5.834;2023-06-22T06:30:24;23.17;;;18.48;;
76113;SDS011;64845;53.086;5.834;2023-06-22T06:32:49;25.75;;;20.00;;
76113;SDS011;64845;53.086;5.834;2023-06-22T06:35:15;23.13;;;17.85;;
76113;SDS011;64845;53.086;5.834;2023-06-22T06:37:42;23.17;;;19.48;;
76113;SDS011;64845;53.086;5.834;2023-06-22T06:40:10;33.75;;;19.55;;
76113;SDS011;64845;53.086;5.834;2023-06-22T06:42:37;24.08;;;19.80;;
76113;SDS011;64845;53.086;5.834;2023-06-22T06:45:05;31.20;;;21.33;;
76113;SDS011;64845;53.086;5.834;2023-06-22T06:47:31;25.20;;;19.80;;
76113;SDS011;64845;53.086;5.834;2023-06-22T06:49:57;24.48;;;19.75;;
76113;SDS011;64845;53.086;5.834;2023-06-22T06:52:22;26.48;;;20.60;;
76113;SDS011;64845;53.086;5.834;2023-06-22T06:54:48;25.15;;;18.83;;
76113;SDS011;64845;53.086;5.834;2023-06-22T06:57:13;25.77;;;19.08;;
76113;SDS011;64845;53.086;5.834;2023-06-22T06:59:40;27.85;;;20.10;;
76113;SDS011;64845;53.086;5.834;2023-06-22T07:02:05;28.15;;;20.90;;
76113;SDS011;64845;53.086;5.834;2023-06-22T07:04:30;26.15;;;19.42;;
76113;SDS011;64845;53.086;5.834;2023-06-22T07:06:56;25.80;;;19.17;;
76113;SDS011;64845;53.086;5.834;2023-06-22T07:09:21;29.27;;;19.73;;
76113;SDS011;64845;53.086;5.834;2023-06-22T07:11:46;25.45;;;20.63;;
76113;SDS011;64845;53.086;5.834;2023-06-22T07:14:12;26.85;;;20.33;;
76113;SDS011;64845;53.086;5.834;2023-06-22T07:16:37;25.67;;;19.90;;
76113;SDS011;64845;53.086;5.834;2023-06-22T07:19:03;22.33;;;18.05;;
76113;SDS011;64845;53.086;5.834;2023-06-22T07:21:28;25.35;;;19.30;;
76113;SDS011;64845;53.086;5.834;2023-06-22T07:23:53;28.30;;;19.85;;
76113;SDS011;64845;53.086;5.834;2023-06-22T07:26:20;27.10;;;20.48;;
76113;SDS011;64845;53.086;5.834;2023-06-22T07:28:45;26.95;;;20.15;;
76113;SDS011;64845;53.086;5.834;2023-06-22T07:31:10;25.88;;;19.98;;
76113;SDS011;64845;53.086;5.834;2023-06-22T07:33:36;28.30;;;18.80;;
76113;SDS011;64845;53.086;5.834;2023-06-22T07:36:01;22.98;;;17.20;;
76113;SDS011;64845;53.086;5.834;2023-06-22T07:38:32;24.10;;;16.90;;
76113;SDS011;64845;53.086;5.834;2023-06-22T07:40:57;19.20;;;15.90;;
76113;SDS011;64845;53.086;5.834;2023-06-22T07:43:23;27.40;;;16.45;;
76113;SDS011;64845;53.086;5.834;2023-06-22T07:45:49;20.52;;;14.48;;
76113;SDS011;64845;53.086;5.834;2023-06-22T07:48:19;21.10;;;13.10;;
76113;SDS011;64845;53.086;5.834;2023-06-22T07:50:46;19.52;;;14.77;;
76113;SDS011;64845;53.086;5.834;2023-06-22T07:53:11;22.13;;;14.30;;
76113;SDS011;64845;53.086;5.834;2023-06-22T07:55:37;24.85;;;15.38;;
76113;SDS011;64845;53.086;5.834;2023-06-22T07:58:02;22.02;;;14.85;;
76113;SDS011;64845;53.086;5.834;2023-06-22T08:00:27;21.08;;;13.32;;
76113;SDS011;64845;53.086;5.834;2023-06-22T08:02:53;14.52;;;11.35;;
76113;SDS011;64845;53.086;5.834;2023-06-22T08:05:19;22.65;;;13.68;;
76113;SDS011;64845;53.086;5.834;2023-06-22T08:07:44;13.85;;;10.98;;
76113;SDS011;64845;53.086;5.834;2023-06-22T08:10:10;16.00;;;12.63;;
76113;SDS011;64845;53.086;5.834;2023-06-22T08:12:36;20.02;;;12.48;;
76113;SDS011;64845;53.086;5.834;2023-06-22T08:15:02;16.23;;;12.55;;
76113;SDS011;64845;53.086;5.834;2023-06-22T08:17:28;16.38;;;11.43;;
76113;SDS011;64845;53.086;5.834;2023-06-22T08:19:53;15.10;;;11.50;;
76113;SDS011;64845;53.086;5.834;2023-06-22T08:22:18;16.08;;;11.40;;
76113;SDS011;64845;53.086;5.834;2023-06-22T08:24:44;13.57;;;10.10;;
76113;SDS011;64845;53.086;5.834;2023-06-22T08:27:10;13.30;;;9.98;;
76113;SDS011;64845;53.086;5.834;2023-06-22T08:29:39;16.23;;;10.40;;
76113;SDS011;64845;53.086;5.834;2023-06-22T08:32:07;14.00;;;10.40;;
76113;SDS011;64845;53.086;5.834;2023-06-22T08:34:33;14.30;;;10.45;;
76113;SDS011;64845;53.086;5.834;2023-06-22T08:36:59;12.50;;;8.90;;
76113;SDS011;64845;53.086;5.834;2023-06-22T08:39:25;16.58;;;11.32;;
76113;SDS011;64845;53.086;5.834;2023-06-22T08:41:51;14.27;;;10.70;;
76113;SDS011;64845;53.086;5.834;2023-06-22T08:44:17;14.57;;;9.55;;
76113;SDS011;64845;53.086;5.834;2023-06-22T08:46:43;15.13;;;9.77;;
76113;SDS011;64845;53.086;5.834;2023-06-22T08:49:09;12.48;;;9.10;;
76113;SDS011;64845;53.086;5.834;2023-06-22T08:51:35;12.15;;;8.20;;
76113;SDS011;64845;53.086;5.834;2023-06-22T08:54:00;10.25;;;7.95;;
76113;SDS011;64845;53.086;5.834;2023-06-22T08:56:26;13.23;;;7.85;;
76113;SDS011;64845;53.086;5.834;2023-06-22T08:58:51;9.18;;;6.57;;
76113;SDS011;64845;53.086;5.834;2023-06-22T09:01:17;9.23;;;5.40;;
76113;SDS011;64845;53.086;5.834;2023-06-22T09:03:42;10.27;;;6.30;;
76113;SDS011;64845;53.086;5.834;2023-06-22T09:06:07;9.63;;;7.40;;
76113;SDS011;64845;53.086;5.834;2023-06-22T09:08:34;12.30;;;6.47;;
76113;SDS011;64845;53.086;5.834;2023-06-22T09:11:00;9.82;;;5.40;;
76113;SDS011;64845;53.086;5.834;2023-06-22T09:13:26;7.18;;;5.05;;
76113;SDS011;64845;53.086;5.834;2023-06-22T09:15:51;7.30;;;6.40;;
76113;SDS011;64845;53.086;5.834;2023-06-22T09:18:17;12.30;;;8.80;;
76113;SDS011;64845;53.086;5.834;2023-06-22T09:20:42;13.10;;;8.02;;
76113;SDS011;64845;53.086;5.834;2023-06-22T09:23:08;10.20;;;6.05;;
76113;SDS011;64845;53.086;5.834;2023-06-22T09:25:33;13.93;;;7.80;;
76113;SDS011;64845;53.086;5.834;2023-06-22T09:27:59;12.10;;;8.02;;
76113;SDS011;64845;53.086;5.834;2023-06-22T09:30:24;8.88;;;6.72;;
76113;SDS011;64845;53.086;5.834;2023-06-22T09:32:50;7.25;;;6.18;;
76113;SDS011;64845;53.086;5.834;2023-06-22T09:35:15;12.02;;;7.22;;
76113;SDS011;64845;53.086;5.834;2023-06-22T09:37:41;12.45;;;8.45;;
76113;SDS011;64845;53.086;5.834;2023-06-22T09:40:06;10.98;;;9.15;;
76113;SDS011;64845;53.086;5.834;2023-06-22T09:42:37;14.00;;;9.75;;
76113;SDS011;64845;53.086;5.834;2023-06-22T09:45:03;14.90;;;10.20;;
76113;SDS011;64845;53.086;5.834;2023-06-22T09:47:29;12.25;;;8.70;;
76113;SDS011;64845;53.086;5.834;2023-06-22T09:49:54;9.60;;;7.75;;
76113;SDS011;64845;53.086;5.834;2023-06-22T09:52:20;10.27;;;7.70;;
76113;SDS011;64845;53.086;5.834;2023-06-22T09:54:48;9.93;;;8.13;;
76113;SDS011;64845;53.086;5.834;2023-06-22T09:57:14;11.10;;;8.25;;
76113;SDS011;64845;53.086;5.834;2023-06-22T09:59:39;14.57;;;8.77;;
76113;SDS011;64845;53.086;5.834;2023-06-22T10:02:05;13.00;;;7.63;;
76113;SDS011;64845;53.086;5.834;2023-06-22T10:04:31;10.68;;;8.30;;
76113;SDS011;64845;53.086;5.834;2023-06-22T10:06:58;10.88;;;9.27;;
76113;SDS011;64845;53.086;5.834;2023-06-22T10:09:23;11.35;;;8.68;;
76113;SDS011;64845;53.086;5.834;2023-06-22T10:11:49;12.07;;;8.88;;
76113;SDS011;64845;53.086;5.834;2023-06-22T10:14:14;11.10;;;7.85;;
76113;SDS011;64845;53.086;5.834;2023-06-22T10:16:40;11.38;;;7.97;;
76113;SDS011;64845;53.086;5.834;2023-06-22T10:19:06;12.15;;;7.72;;
76113;SDS011;64845;53.086;5.834;2023-06-22T10:21:31;11.35;;;7.45;;
76113;SDS011;64845;53.086;5.834;2023-06-22T10:23:57;15.45;;;8.40;;
76113;SDS011;64845;53.086;5.834;2023-06-22T10:26:24;10.38;;;8.48;;
76113;SDS011;64845;53.086;5.834;2023-06-22T10:28:50;9.10;;;7.00;;
76113;SDS011;64845;53.086;5.834;2023-06-22T10:31:15;10.23;;;6.85;;
76113;SDS011;64845;53.086;5.834;2023-06-22T10:33:41;9.98;;;7.05;;
76113;SDS011;64845;53.086;5.834;2023-06-22T10:36:08;11.93;;;7.30;;
76113;SDS011;64845;53.086;5.834;2023-06-22T10:38:34;8.63;;;6.55;;
76113;SDS011;64845;53.086;5.834;2023-06-22T10:40:59;10.02;;;6.15;;
76113;SDS011;64845;53.086;5.834;2023-06-22T10:43:25;10.20;;;7.82;;
76113;SDS011;64845;53.086;5.834;2023-06-22T10:45:50;7.40;;;6.35;;
76113;SDS011;64845;53.086;5.834;2023-06-22T10:48:16;9.65;;;7.50;;
76113;SDS011;64845;53.086;5.834;2023-06-22T10:50:41;10.63;;;7.72;;
76113;SDS011;64845;53.086;5.834;2023-06-22T10:53:06;13.77;;;8.00;;
76113;SDS011;64845;53.086;5.834;2023-06-22T10:55:32;9.40;;;7.35;;
76113;SDS011;64845;53.086;5.834;2023-06-22T10:57:57;13.75;;;9.20;;
76113;SDS011;64845;53.086;5.834;2023-06-22T11:00:22;10.95;;;7.88;;
76113;SDS011;64845;53.086;5.834;2023-06-22T11:02:48;12.80;;;7.80;;
76113;SDS011;64845;53.086;5.834;2023-06-22T11:05:13;9.98;;;6.78;;
76113;SDS011;64845;53.086;5.834;2023-06-22T11:07:42;10.10;;;6.88;;
76113;SDS011;64845;53.086;5.834;2023-06-22T11:10:09;8.75;;;6.55;;
76113;SDS011;64845;53.086;5.834;2023-06-22T11:12:35;8.27;;;6.43;;
76113;SDS011;64845;53.086;5.834;2023-06-22T11:15:00;8.20;;;6.50;;
76113;SDS011;64845;53.086;5.834;2023-06-22T11:17:26;7.63;;;5.68;;
76113;SDS011;64845;53.086;5.834;2023-06-22T11:19:52;7.30;;;5.60;;
76113;SDS011;64845;53.086;5.834;2023-06-22T11:22:17;6.78;;;5.30;;
76113;SDS011;64845;53.086;5.834;2023-06-22T11:24:42;6.55;;;4.70;;
76113;SDS011;64845;53.086;5.834;2023-06-22T11:27:08;5.95;;;4.65;;
76113;SDS011;64845;53.086;5.834;2023-06-22T11:29:33;6.78;;;4.88;;
76113;SDS011;64845;53.086;5.834;2023-06-22T11:31:58;8.23;;;5.20;;
76113;SDS011;64845;53.086;5.834;2023-06-22T11:34:24;8.75;;;5.10;;
76113;SDS011;64845;53.086;5.834;2023-06-22T11:36:49;6.63;;;4.90;;
76113;SDS011;64845;53.086;5.834;2023-06-22T11:39:15;7.18;;;5.47;;
76113;SDS011;64845;53.086;5.834;2023-06-22T11:41:40;7.72;;;4.90;;
76113;SDS011;64845;53.086;5.834;2023-06-22T11:44:07;9.20;;;4.53;;
76113;SDS011;64845;53.086;5.834;2023-06-22T11:46:32;7.85;;;4.80;;
76113;SDS011;64845;53.086;5.834;2023-06-22T11:48:58;7.38;;;4.30;;
76113;SDS011;64845;53.086;5.834;2023-06-22T11:51:23;5.90;;;4.63;;
76113;SDS011;64845;53.086;5.834;2023-06-22T11:53:49;6.28;;;4.10;;
76113;SDS011;64845;53.086;5.834;2023-06-22T11:56:14;5.50;;;4.68;;
76113;SDS011;64845;53.086;5.834;2023-06-22T11:58:39;6.68;;;3.95;;
76113;SDS011;64845;53.086;5.834;2023-06-22T12:01:05;4.85;;;4.35;;
76113;SDS011;64845;53.086;5.834;2023-06-22T12:03:30;8.63;;;3.97;;
76113;SDS011;64845;53.086;5.834;2023-06-22T12:05:56;9.27;;;4.60;;
76113;SDS011;64845;53.086;5.834;2023-06-22T12:08:21;5.45;;;3.70;;
76113;SDS011;64845;53.086;5.834;2023-06-22T12:10:47;5.50;;;4.45;;
76113;SDS011;64845;53.086;5.834;2023-06-22T12:13:12;9.93;;;5.10;;
76113;SDS011;64845;53.086;5.834;2023-06-22T12:15:38;7.47;;;5.65;;
76113;SDS011;64845;53.086;5.834;2023-06-22T12:18:03;6.47;;;5.72;;
76113;SDS011;64845;53.086;5.834;2023-06-22T12:20:29;8.48;;;5.63;;
76113;SDS011;64845;53.086;5.834;2023-06-22T12:22:54;7.05;;;5.90;;
76113;SDS011;64845;53.086;5.834;2023-06-22T12:25:23;8.23;;;5.43;;
76113;SDS011;64845;53.086;5.834;2023-06-22T12:27:48;7.93;;;4.90;;
76113;SDS011;64845;53.086;5.834;2023-06-22T12:30:15;11.02;;;5.18;;
76113;SDS011;64845;53.086;5.834;2023-06-22T12:32:41;11.00;;;4.88;;
76113;SDS011;64845;53.086;5.834;2023-06-22T12:35:07;10.80;;;5.00;;
76113;SDS011;64845;53.086;5.834;2023-06-22T12:37:37;6.22;;;4.38;;
76113;SDS011;64845;53.086;5.834;2023-06-22T12:40:02;8.52;;;4.55;;
76113;SDS011;64845;53.086;5.834;2023-06-22T12:42:29;5.43;;;4.13;;
76113;SDS011;64845;53.086;5.834;2023-06-22T12:44:54;5.05;;;4.25;;
76113;SDS011;64845;53.086;5.834;2023-06-22T12:47:19;6.82;;;4.20;;
76113;SDS011;64845;53.086;5.834;2023-06-22T12:49:45;7.18;;;4.28;;
76113;SDS011;64845;53.086;5.834;2023-06-22T12:52:10;6.35;;;4.63;;
76113;SDS011;64845;53.086;5.834;2023-06-22T12:54:36;5.97;;;3.80;;
76113;SDS011;64845;53.086;5.834;2023-06-22T12:57:02;6.57;;;3.50;;
76113;SDS011;64845;53.086;5.834;2023-06-22T12:59:27;6.28;;;3.50;;
76113;SDS011;64845;53.086;5.834;2023-06-22T13:01:52;5.97;;;3.40;;
76113;SDS011;64845;53.086;5.834;2023-06-22T13:04:18;4.43;;;3.45;;
76113;SDS011;64845;53.086;5.834;2023-06-22T13:06:46;4.10;;;3.13;;
76113;SDS011;64845;53.086;5.834;2023-06-22T13:09:13;6.05;;;3.17;;
76113;SDS011;64845;53.086;5.834;2023-06-22T13:11:40;5.60;;;3.40;;
76113;SDS011;64845;53.086;5.834;2023-06-22T13:14:05;4.85;;;3.22;;
76113;SDS011;64845;53.086;5.834;2023-06-22T13:16:31;4.40;;;3.00;;
76113;SDS011;64845;53.086;5.834;2023-06-22T13:18:56;8.52;;;3.88;;
76113;SDS011;64845;53.086;5.834;2023-06-22T13:21:22;7.53;;;3.47;;
76113;SDS011;64845;53.086;5.834;2023-06-22T13:23:47;3.92;;;3.03;;
76113;SDS011;64845;53.086;5.834;2023-06-22T13:26:12;5.95;;;3.35;;
76113;SDS011;64845;53.086;5.834;2023-06-22T13:28:38;4.88;;;2.55;;
76113;SDS011;64845;53.086;5.834;2023-06-22T13:31:03;11.13;;;3.00;;
76113;SDS011;64845;53.086;5.834;2023-06-22T13:33:28;9.40;;;2.97;;
76113;SDS011;64845;53.086;5.834;2023-06-22T13:35:54;6.65;;;2.60;;
76113;SDS011;64845;53.086;5.834;2023-06-22T13:38:19;8.55;;;2.35;;
76113;SDS011;64845;53.086;5.834;2023-06-22T13:40:45;4.07;;;2.20;;
76113;SDS011;64845;53.086;5.834;2023-06-22T13:43:10;4.63;;;1.95;;
76113;SDS011;64845;53.086;5.834;2023-06-22T13:45:36;4.40;;;2.20;;
76113;SDS011;64845;53.086;5.834;2023-06-22T13:48:01;2.72;;;1.88;;
76113;SDS011;64845;53.086;5.834;2023-06-22T13:50:26;4.53;;;1.60;;
76113;SDS011;64845;53.086;5.834;2023-06-22T13:52:52;4.30;;;1.85;;
76113;SDS011;64845;53.086;5.834;2023-06-22T13:55:17;8.00;;;2.38;;
76113;SDS011;64845;53.086;5.834;2023-06-22T13:57:44;7.75;;;2.25;;
76113;SDS011;64845;53.086;5.834;2023-06-22T14:00:10;3.97;;;2.20;;
76113;SDS011;64845;53.086;5.834;2023-06-22T14:02:37;5.00;;;2.00;;
76113;SDS011;64845;53.086;5.834;2023-06-22T14:05:03;7.85;;;2.28;;
76113;SDS011;64845;53.086;5.834;2023-06-22T14:07:29;8.13;;;2.25;;
76113;SDS011;64845;53.086;5.834;2023-06-22T14:09:54;5.05;;;2.08;;
76113;SDS011;64845;53.086;5.834;2023-06-22T14:12:19;7.22;;;2.17;;
76113;SDS011;64845;53.086;5.834;2023-06-22T14:14:45;13.05;;;2.50;;
76113;SDS011;64845;53.086;5.834;2023-06-22T14:17:10;15.82;;;2.70;;
76113;SDS011;64845;53.086;5.834;2023-06-22T14:19:36;4.70;;;1.88;;
76113;SDS011;64845;53.086;5.834;2023-06-22T14:22:01;6.43;;;2.00;;
76113;SDS011;64845;53.086;5.834;2023-06-22T14:24:27;3.53;;;1.73;;
76113;SDS011;64845;53.086;5.834;2023-06-22T14:26:53;8.20;;;1.92;;
76113;SDS011;64845;53.086;5.834;2023-06-22T14:29:20;2.47;;;1.50;;
76113;SDS011;64845;53.086;5.834;2023-06-22T14:31:45;2.85;;;1.63;;
76113;SDS011;64845;53.086;5.834;2023-06-22T14:34:11;2.58;;;1.50;;
76113;SDS011;64845;53.086;5.834;2023-06-22T14:36:37;7.18;;;1.67;;